createdAt,value
2018-04-15T00:00:16.561Z,22.9
2018-04-15T00:01:06.388Z,22.9
2018-04-15T00:01:57.023Z,22.9
2018-04-15T00:02:45.894Z,22.9
2018-04-15T00:03:37.128Z,22.9
2018-04-15T00:04:26.366Z,22.9
2018-04-15T00:05:18.008Z,22.9
2018-04-15T00:06:07.248Z,22.9
2018-04-15T00:06:56.525Z,22.9
2018-04-15T00:07:46.383Z,22.9
2018-04-15T00:08:37.505Z,22.9
2018-04-15T00:09:26.749Z,22.9
2018-04-15T00:10:17.108Z,22.9
2018-04-15T00:11:07.953Z,22.9
2018-04-15T00:11:56.988Z,22.9
2018-04-15T00:12:48.318Z,22.9
2018-04-15T00:13:37.285Z,22.9
2018-04-15T00:14:27.945Z,22.9
2018-04-15T00:15:17.723Z,22.9
2018-04-15T00:16:08.165Z,22.9
2018-04-15T00:16:57.883Z,22.9
2018-04-15T00:17:47.870Z,22.9
2018-04-15T00:18:38.242Z,22.9
2018-04-15T00:19:27.556Z,22.9
2018-04-15T00:20:17.147Z,22.9
2018-04-15T00:21:06.408Z,22.9
2018-04-15T00:21:57.404Z,22.9
2018-04-15T00:22:47.759Z,22.9
2018-04-15T00:23:37.969Z,22.9
2018-04-15T00:24:26.812Z,22.9
2018-04-15T00:25:18.203Z,22.9
2018-04-15T00:26:07.557Z,22.9
2018-04-15T00:26:57.903Z,22.9
2018-04-15T00:27:48.380Z,22.9
2018-04-15T00:28:39.009Z,22.9
2018-04-15T00:29:28.224Z,22.9
2018-04-15T00:30:18.823Z,22.9
2018-04-15T00:31:09.193Z,22.9
2018-04-15T00:31:58.773Z,22.9
2018-04-15T00:32:48.496Z,22.9
2018-04-15T00:33:38.652Z,22.9
2018-04-15T00:34:29.778Z,22.9
2018-04-15T00:35:17.379Z,22.9
2018-04-15T00:36:07.529Z,22.9
2018-04-15T00:36:58.063Z,22.9
2018-04-15T00:37:48.450Z,22.9
2018-04-15T00:38:38.731Z,22.9
2018-04-15T00:39:29.503Z,22.9
2018-04-15T00:40:18.900Z,22.9
2018-04-15T00:41:09.225Z,22.9
2018-04-15T00:41:58.928Z,22.9
2018-04-15T00:42:50.368Z,22.9
2018-04-15T00:43:39.356Z,22.9
2018-04-15T00:44:29.255Z,22.9
2018-04-15T00:45:20.052Z,22.9
2018-04-15T00:46:10.086Z,22.9
2018-04-15T00:47:00.418Z,22.9
2018-04-15T00:47:49.948Z,22.9
2018-04-15T00:48:40.298Z,22.9
2018-04-15T00:49:29.298Z,22.9
2018-04-15T00:50:19.892Z,22.9
2018-04-15T00:51:10.818Z,22.9
2018-04-15T00:51:59.807Z,22.9
2018-04-15T00:52:50.607Z,22.9
2018-04-15T00:53:40.688Z,22.9
2018-04-15T00:54:30.748Z,22.8
2018-04-15T00:55:19.731Z,22.9
2018-04-15T00:56:10.339Z,22.8
2018-04-15T00:57:01.435Z,22.9
2018-04-15T00:57:49.604Z,22.9
2018-04-15T00:58:41.333Z,22.9
2018-04-15T00:59:30.067Z,22.9
2018-04-15T01:00:20.690Z,22.9
2018-04-15T01:01:10.770Z,22.8
2018-04-15T01:02:01.333Z,22.9
2018-04-15T01:02:51.658Z,22.9
2018-04-15T01:03:41.223Z,22.9
2018-04-15T01:04:31.511Z,22.9
2018-04-15T01:05:20.983Z,22.9
2018-04-15T01:06:11.369Z,22.9
2018-04-15T01:07:01.440Z,22.9
2018-04-15T01:07:51.793Z,22.9
2018-04-15T01:08:41.857Z,22.9
2018-04-15T01:09:31.334Z,22.8
2018-04-15T01:10:21.953Z,22.9
2018-04-15T01:11:11.534Z,22.8
2018-04-15T01:12:01.879Z,22.9
2018-04-15T01:12:51.856Z,22.9
2018-04-15T01:13:42.543Z,22.8
2018-04-15T01:14:31.177Z,22.9
2018-04-15T01:15:21.561Z,22.8
2018-04-15T01:16:11.676Z,22.8
2018-04-15T01:17:02.303Z,22.9
2018-04-15T01:17:51.507Z,22.8
2018-04-15T01:18:41.525Z,22.9
2018-04-15T01:19:31.132Z,22.9
2018-04-15T01:20:21.194Z,22.9
2018-04-15T01:21:12.060Z,22.9
2018-04-15T01:22:03.141Z,22.9
2018-04-15T01:22:51.784Z,22.9
2018-04-15T01:23:41.605Z,22.9
2018-04-15T01:24:32.535Z,22.8
2018-04-15T01:25:23.214Z,22.9
2018-04-15T01:26:12.880Z,22.9
2018-04-15T01:27:02.683Z,22.9
2018-04-15T01:27:52.965Z,22.9
2018-04-15T01:28:43.837Z,22.9
2018-04-15T01:29:33.434Z,22.8
2018-04-15T01:30:23.287Z,22.9
2018-04-15T01:31:12.760Z,22.8
2018-04-15T01:32:03.253Z,22.8
2018-04-15T01:32:53.711Z,22.8
2018-04-15T01:33:42.418Z,22.8
2018-04-15T01:34:32.777Z,22.8
2018-04-15T01:35:23.683Z,22.8
2018-04-15T01:36:14.319Z,22.8
2018-04-15T01:37:03.978Z,22.8
2018-04-15T01:37:54.565Z,22.8
2018-04-15T01:38:43.825Z,22.9
2018-04-15T01:39:34.142Z,22.8
2018-04-15T01:40:25.027Z,22.9
2018-04-15T01:41:14.077Z,22.8
2018-04-15T01:42:04.054Z,22.8
2018-04-15T01:42:53.906Z,22.9
2018-04-15T01:43:43.647Z,22.8
2018-04-15T01:44:33.139Z,22.8
2018-04-15T01:45:24.323Z,22.8
2018-04-15T01:46:14.391Z,22.8
2018-04-15T01:47:04.531Z,22.8
2018-04-15T01:47:55.098Z,22.8
2018-04-15T01:48:44.348Z,22.8
2018-04-15T01:49:34.716Z,22.8
2018-04-15T01:50:24.453Z,22.9
2018-04-15T01:51:15.053Z,22.8
2018-04-15T01:52:05.083Z,22.8
2018-04-15T01:52:55.740Z,22.8
2018-04-15T01:53:44.783Z,22.8
2018-04-15T01:54:35.000Z,22.8
2018-04-15T01:55:25.665Z,22.8
2018-04-15T01:56:15.142Z,22.8
2018-04-15T01:57:05.767Z,22.8
2018-04-15T01:57:55.807Z,22.8
2018-04-15T01:58:45.865Z,22.8
2018-04-15T01:59:35.373Z,22.8
2018-04-15T02:00:26.569Z,22.8
2018-04-15T02:01:16.101Z,22.8
2018-04-15T02:02:05.423Z,22.8
2018-04-15T02:02:55.991Z,22.8
2018-04-15T02:03:45.464Z,22.8
2018-04-15T02:04:35.844Z,22.8
2018-04-15T02:05:25.629Z,22.8
2018-04-15T02:06:16.180Z,22.8
2018-04-15T02:07:05.158Z,22.8
2018-04-15T02:07:56.342Z,22.8
2018-04-15T02:08:46.464Z,22.8
2018-04-15T02:09:36.455Z,22.8
2018-04-15T02:10:27.006Z,22.8
2018-04-15T02:11:16.852Z,22.8
2018-04-15T02:12:06.343Z,22.8
2018-04-15T02:12:56.917Z,22.8
2018-04-15T02:13:47.007Z,22.8
2018-04-15T02:14:37.462Z,22.8
2018-04-15T02:15:25.783Z,22.8
2018-04-15T02:16:17.190Z,22.8
2018-04-15T02:17:07.530Z,22.8
2018-04-15T02:17:57.060Z,22.8
2018-04-15T02:18:47.439Z,22.8
2018-04-15T02:19:36.919Z,22.8
2018-04-15T02:20:26.987Z,22.8
2018-04-15T02:21:16.522Z,22.8
2018-04-15T02:22:07.382Z,22.8
2018-04-15T02:22:57.775Z,22.8
2018-04-15T02:23:47.757Z,22.8
2018-04-15T02:24:38.118Z,22.8
2018-04-15T02:25:27.404Z,22.8
2018-04-15T02:26:18.261Z,22.8
2018-04-15T02:27:08.337Z,22.8
2018-04-15T02:27:56.674Z,22.8
2018-04-15T02:28:47.838Z,22.8
2018-04-15T02:29:38.158Z,22.8
2018-04-15T02:30:28.033Z,22.8
2018-04-15T02:31:18.089Z,22.8
2018-04-15T02:32:08.224Z,22.8
2018-04-15T02:32:58.221Z,22.8
2018-04-15T02:33:48.102Z,22.8
2018-04-15T02:34:39.202Z,22.8
2018-04-15T02:35:27.558Z,22.8
2018-04-15T02:36:18.522Z,22.8
2018-04-15T02:37:09.139Z,22.8
2018-04-15T02:37:57.778Z,22.8
2018-04-15T02:38:49.307Z,22.8
2018-04-15T02:39:37.611Z,22.8
2018-04-15T02:40:28.708Z,22.8
2018-04-15T02:41:17.854Z,22.8
2018-04-15T02:42:08.154Z,22.8
2018-04-15T02:42:59.008Z,22.8
2018-04-15T02:43:48.532Z,22.8
2018-04-15T02:44:39.676Z,22.8
2018-04-15T02:45:29.811Z,22.8
2018-04-15T02:46:19.021Z,22.8
2018-04-15T02:47:09.926Z,22.8
2018-04-15T02:47:59.411Z,22.8
2018-04-15T02:48:49.991Z,22.8
2018-04-15T02:49:38.511Z,22.8
2018-04-15T02:50:29.072Z,22.8
2018-04-15T02:51:19.925Z,22.8
2018-04-15T02:52:09.421Z,22.8
2018-04-15T02:52:59.469Z,22.8
2018-04-15T02:53:48.223Z,22.8
2018-04-15T02:54:40.153Z,22.8
2018-04-15T02:55:30.276Z,22.8
2018-04-15T02:56:18.665Z,22.8
2018-04-15T02:57:09.325Z,22.8
2018-04-15T02:58:00.145Z,22.8
2018-04-15T02:58:50.787Z,22.8
2018-04-15T02:59:40.241Z,22.8
2018-04-15T03:00:29.843Z,22.8
2018-04-15T03:01:20.490Z,22.8
2018-04-15T03:02:09.983Z,22.8
2018-04-15T03:03:01.168Z,22.8
2018-04-15T03:03:50.135Z,22.8
2018-04-15T03:04:40.382Z,22.8
2018-04-15T03:05:30.231Z,22.8
2018-04-15T03:06:20.583Z,22.8
2018-04-15T03:07:10.346Z,22.8
2018-04-15T03:08:00.973Z,22.8
2018-04-15T03:08:50.472Z,22.8
2018-04-15T03:09:41.174Z,22.8
2018-04-15T03:10:31.162Z,22.8
2018-04-15T03:11:20.393Z,22.8
2018-04-15T03:12:10.241Z,22.8
2018-04-15T03:13:01.087Z,22.8
2018-04-15T03:13:50.607Z,22.8
2018-04-15T03:14:40.950Z,22.8
2018-04-15T03:15:30.941Z,22.8
2018-04-15T03:16:21.298Z,22.8
2018-04-15T03:17:11.329Z,22.8
2018-04-15T03:18:01.145Z,22.8
2018-04-15T03:18:51.514Z,22.8
2018-04-15T03:19:41.436Z,22.8
2018-04-15T03:20:32.185Z,22.8
2018-04-15T03:21:21.749Z,22.8
2018-04-15T03:22:10.951Z,22.8
2018-04-15T03:23:01.249Z,22.8
2018-04-15T03:23:51.924Z,22.8
2018-04-15T03:24:41.926Z,22.8
2018-04-15T03:25:32.790Z,22.8
2018-04-15T03:26:22.061Z,22.8
2018-04-15T03:27:12.159Z,22.8
2018-04-15T03:28:01.728Z,22.8
2018-04-15T03:28:52.302Z,22.8
2018-04-15T03:29:42.343Z,22.8
2018-04-15T03:30:32.508Z,22.8
2018-04-15T03:31:22.174Z,22.8
2018-04-15T03:32:12.594Z,22.8
2018-04-15T03:33:02.125Z,22.8
2018-04-15T03:33:52.724Z,22.8
2018-04-15T03:34:42.143Z,22.8
2018-04-15T03:35:32.816Z,22.8
2018-04-15T03:36:22.290Z,22.8
2018-04-15T03:37:13.677Z,22.8
2018-04-15T03:38:03.177Z,22.8
2018-04-15T03:38:52.456Z,22.8
2018-04-15T03:39:43.593Z,22.8
2018-04-15T03:40:33.435Z,22.8
2018-04-15T03:41:22.951Z,22.8
2018-04-15T03:42:13.590Z,22.8
2018-04-15T03:43:04.178Z,22.8
2018-04-15T03:43:53.421Z,22.8
2018-04-15T03:44:43.476Z,22.8
2018-04-15T03:45:32.908Z,22.8
2018-04-15T03:46:23.463Z,22.8
2018-04-15T03:47:13.421Z,22.8
2018-04-15T03:48:03.461Z,22.8
2018-04-15T03:48:53.713Z,22.8
2018-04-15T03:49:43.769Z,22.8
2018-04-15T03:50:33.980Z,22.8
2018-04-15T03:51:23.942Z,22.8
2018-04-15T03:52:14.336Z,22.8
2018-04-15T03:53:04.874Z,22.8
2018-04-15T03:53:54.887Z,22.8
2018-04-15T03:54:45.046Z,22.8
2018-04-15T03:55:34.034Z,22.8
2018-04-15T03:56:24.549Z,22.8
2018-04-15T03:57:15.196Z,22.8
2018-04-15T03:58:04.156Z,22.8
2018-04-15T03:58:55.329Z,22.8
2018-04-15T03:59:45.096Z,22.8
2018-04-15T04:00:34.614Z,22.8
2018-04-15T04:01:25.242Z,22.8
2018-04-15T04:02:15.117Z,22.8
2018-04-15T04:03:05.359Z,22.8
2018-04-15T04:03:54.869Z,22.8
2018-04-15T04:04:45.264Z,22.8
2018-04-15T04:05:35.526Z,22.8
2018-04-15T04:06:25.869Z,22.8
2018-04-15T04:07:15.561Z,22.8
2018-04-15T04:08:05.771Z,22.8
2018-04-15T04:08:55.508Z,22.8
2018-04-15T04:09:46.124Z,22.8
2018-04-15T04:10:35.944Z,22.8
2018-04-15T04:11:26.267Z,22.8
2018-04-15T04:12:16.346Z,22.8
2018-04-15T04:13:05.267Z,22.8
2018-04-15T04:13:56.167Z,22.8
2018-04-15T04:14:45.674Z,22.8
2018-04-15T04:15:35.747Z,22.8
2018-04-15T04:16:25.300Z,22.8
2018-04-15T04:17:16.469Z,22.8
2018-04-15T04:18:05.960Z,22.8
2018-04-15T04:18:56.557Z,22.8
2018-04-15T04:19:46.112Z,22.8
2018-04-15T04:20:37.615Z,22.8
2018-04-15T04:21:26.478Z,22.8
2018-04-15T04:22:16.258Z,22.8
2018-04-15T04:23:07.180Z,22.8
2018-04-15T04:23:56.684Z,22.8
2018-04-15T04:24:46.699Z,22.8
2018-04-15T04:25:36.537Z,22.8
2018-04-15T04:26:26.553Z,22.8
2018-04-15T04:27:16.920Z,22.8
2018-04-15T04:28:06.992Z,22.8
2018-04-15T04:28:55.932Z,22.8
2018-04-15T04:29:47.675Z,22.8
2018-04-15T04:30:36.309Z,22.8
2018-04-15T04:31:27.551Z,22.8
2018-04-15T04:32:17.324Z,22.8
2018-04-15T04:33:07.793Z,22.8
2018-04-15T04:33:58.322Z,22.8
2018-04-15T04:34:46.417Z,22.8
2018-04-15T04:35:37.820Z,22.8
2018-04-15T04:36:27.597Z,22.8
2018-04-15T04:37:17.719Z,22.8
2018-04-15T04:38:07.764Z,22.8
2018-04-15T04:38:57.819Z,22.8
2018-04-15T04:39:48.661Z,22.8
2018-04-15T04:40:37.678Z,22.8
2018-04-15T04:41:28.278Z,22.8
2018-04-15T04:42:17.759Z,22.8
2018-04-15T04:43:08.711Z,22.8
2018-04-15T04:43:57.372Z,22.8
2018-04-15T04:44:48.307Z,22.8
2018-04-15T04:45:38.360Z,22.8
2018-04-15T04:46:29.251Z,22.8
2018-04-15T04:47:19.009Z,22.8
2018-04-15T04:48:09.058Z,22.8
2018-04-15T04:48:58.863Z,22.8
2018-04-15T04:49:48.427Z,22.8
2018-04-15T04:50:39.264Z,22.8
2018-04-15T04:51:28.243Z,22.8
2018-04-15T04:52:19.751Z,22.8
2018-04-15T04:53:08.033Z,22.8
2018-04-15T04:53:58.979Z,22.8
2018-04-15T04:54:48.533Z,22.8
2018-04-15T04:55:39.099Z,22.8
2018-04-15T04:56:29.168Z,22.8
2018-04-15T04:57:19.487Z,22.8
2018-04-15T04:58:10.075Z,22.8
2018-04-15T04:58:59.400Z,22.8
2018-04-15T04:59:48.829Z,22.8
2018-04-15T05:00:39.210Z,22.8
2018-04-15T05:01:29.515Z,22.8
2018-04-15T05:02:20.432Z,22.8
2018-04-15T05:03:09.362Z,22.8
2018-04-15T05:04:00.197Z,22.8
2018-04-15T05:04:50.097Z,22.8
2018-04-15T05:05:40.679Z,22.8
2018-04-15T05:06:30.450Z,22.8
2018-04-15T05:07:19.753Z,22.8
2018-04-15T05:08:09.221Z,22.8
2018-04-15T05:09:00.163Z,22.8
2018-04-15T05:09:49.787Z,22.8
2018-04-15T05:10:39.295Z,22.8
2018-04-15T05:11:29.067Z,22.8
2018-04-15T05:12:18.764Z,22.8
2018-04-15T05:13:10.328Z,22.8
2018-04-15T05:14:01.072Z,22.8
2018-04-15T05:14:50.264Z,22.8
2018-04-15T05:15:39.318Z,22.8
2018-04-15T05:16:31.543Z,22.8
2018-04-15T05:17:21.314Z,22.8
2018-04-15T05:18:10.536Z,22.8
2018-04-15T05:19:00.946Z,22.8
2018-04-15T05:19:49.330Z,22.8
2018-04-15T05:20:41.294Z,22.8
2018-04-15T05:21:31.327Z,22.8
2018-04-15T05:22:20.596Z,22.8
2018-04-15T05:23:49.705Z,22.8
2018-04-15T05:24:39.714Z,22.8
2018-04-15T05:25:30.400Z,22.8
2018-04-15T05:26:19.392Z,22.8
2018-04-15T05:27:10.222Z,22.8
2018-04-15T05:28:00.266Z,22.8
2018-04-15T05:28:49.790Z,22.8
2018-04-15T05:29:40.716Z,22.8
2018-04-15T05:30:30.233Z,22.8
2018-04-15T05:31:20.032Z,22.8
2018-04-15T05:32:10.441Z,22.8
2018-04-15T05:33:00.954Z,22.8
2018-04-15T05:33:50.488Z,22.8
2018-04-15T05:34:40.525Z,22.8
2018-04-15T05:35:31.163Z,22.8
2018-04-15T05:36:21.493Z,22.8
2018-04-15T05:37:10.699Z,22.8
2018-04-15T05:38:01.558Z,22.8
2018-04-15T05:38:50.818Z,22.8
2018-04-15T05:39:41.075Z,22.8
2018-04-15T05:40:31.161Z,22.8
2018-04-15T05:41:21.507Z,22.8
2018-04-15T05:42:11.100Z,22.8
2018-04-15T05:43:01.691Z,22.8
2018-04-15T05:43:51.463Z,22.8
2018-04-15T05:44:41.605Z,22.8
2018-04-15T05:45:31.626Z,22.8
2018-04-15T05:46:20.903Z,22.8
2018-04-15T05:47:10.908Z,22.8
2018-04-15T05:48:00.937Z,22.8
2018-04-15T05:48:52.145Z,22.8
2018-04-15T05:49:41.381Z,22.8
2018-04-15T05:50:30.874Z,22.8
2018-04-15T05:51:21.758Z,22.8
2018-04-15T05:52:11.033Z,22.8
2018-04-15T05:53:01.897Z,22.8
2018-04-15T05:53:52.713Z,22.8
2018-04-15T05:54:41.437Z,22.8
2018-04-15T05:55:31.787Z,22.8
2018-04-15T05:56:21.402Z,22.8
2018-04-15T05:57:11.645Z,22.8
2018-04-15T05:58:02.630Z,22.8
2018-04-15T05:58:52.962Z,22.8
2018-04-15T05:59:43.057Z,22.8
2018-04-15T06:00:32.761Z,22.8
2018-04-15T06:01:22.565Z,22.8
2018-04-15T06:02:12.848Z,22.8
2018-04-15T06:03:02.962Z,22.8
2018-04-15T06:03:53.290Z,22.8
2018-04-15T06:04:43.324Z,22.8
2018-04-15T06:05:32.626Z,22.8
2018-04-15T06:06:22.098Z,22.8
2018-04-15T06:07:13.265Z,22.8
2018-04-15T06:08:02.519Z,22.8
2018-04-15T06:08:53.611Z,22.8
2018-04-15T06:09:42.913Z,22.8
2018-04-15T06:10:32.670Z,22.8
2018-04-15T06:11:23.036Z,22.8
2018-04-15T06:12:13.615Z,22.8
2018-04-15T06:13:03.188Z,22.8
2018-04-15T06:13:54.055Z,22.8
2018-04-15T06:14:43.306Z,22.8
2018-04-15T06:15:34.206Z,22.8
2018-04-15T06:16:24.208Z,22.8
2018-04-15T06:17:13.781Z,22.8
2018-04-15T06:18:03.854Z,22.8
2018-04-15T06:18:54.748Z,22.8
2018-04-15T06:19:44.196Z,22.8
2018-04-15T06:20:34.295Z,22.8
2018-04-15T06:21:24.075Z,22.8
2018-04-15T06:22:14.969Z,22.8
2018-04-15T06:23:03.890Z,22.8
2018-04-15T06:23:54.526Z,22.8
2018-04-15T06:24:44.514Z,22.8
2018-04-15T06:25:35.271Z,22.8
2018-04-15T06:26:24.750Z,22.8
2018-04-15T06:27:13.912Z,22.8
2018-04-15T06:28:04.263Z,22.9
2018-04-15T06:28:54.668Z,22.8
2018-04-15T06:29:44.680Z,22.8
2018-04-15T06:30:34.625Z,22.8
2018-04-15T06:31:25.142Z,22.8
2018-04-15T06:32:15.455Z,22.8
2018-04-15T06:33:05.720Z,22.8
2018-04-15T06:33:55.027Z,22.8
2018-04-15T06:34:45.135Z,22.8
2018-04-15T06:35:35.188Z,22.8
2018-04-15T06:36:25.511Z,22.8
2018-04-15T06:37:15.053Z,22.8
2018-04-15T06:38:05.626Z,22.8
2018-04-15T06:38:55.000Z,22.8
2018-04-15T06:39:45.374Z,22.8
2018-04-15T06:40:35.534Z,22.8
2018-04-15T06:41:25.603Z,22.8
2018-04-15T06:42:15.396Z,22.8
2018-04-15T06:43:06.369Z,22.8
2018-04-15T06:43:55.224Z,22.8
2018-04-15T06:44:46.507Z,22.8
2018-04-15T06:45:35.629Z,22.8
2018-04-15T06:46:25.992Z,22.8
2018-04-15T06:47:16.342Z,22.8
2018-04-15T06:48:06.624Z,22.8
2018-04-15T06:48:55.883Z,22.8
2018-04-15T06:49:46.288Z,22.8
2018-04-15T06:50:36.928Z,22.8
2018-04-15T06:51:26.868Z,22.8
2018-04-15T06:52:16.108Z,22.8
2018-04-15T06:53:06.791Z,22.8
2018-04-15T06:53:57.053Z,22.9
2018-04-15T06:54:46.888Z,22.9
2018-04-15T06:55:35.240Z,22.9
2018-04-15T06:56:27.666Z,22.9
2018-04-15T06:57:17.127Z,22.8
2018-04-15T06:58:07.122Z,22.8
2018-04-15T06:58:57.183Z,22.9
2018-04-15T06:59:47.019Z,22.9
2018-04-15T07:00:37.570Z,22.9
2018-04-15T07:01:27.125Z,22.8
2018-04-15T07:02:17.117Z,22.8
2018-04-15T07:03:06.095Z,22.9
2018-04-15T07:03:56.463Z,22.9
2018-04-15T07:04:47.092Z,22.9
2018-04-15T07:05:38.243Z,22.9
2018-04-15T07:06:26.386Z,22.9
2018-04-15T07:07:17.334Z,22.9
2018-04-15T07:08:07.444Z,22.9
2018-04-15T07:08:57.732Z,22.9
2018-04-15T07:09:48.961Z,22.9
2018-04-15T07:10:38.637Z,22.9
2018-04-15T07:11:27.989Z,22.9
2018-04-15T07:12:18.247Z,22.9
2018-04-15T07:13:08.246Z,22.9
2018-04-15T07:13:58.034Z,22.9
2018-04-15T07:14:47.490Z,22.9
2018-04-15T07:15:38.437Z,22.9
2018-04-15T07:16:28.469Z,22.9
2018-04-15T07:17:17.786Z,22.9
2018-04-15T07:18:08.415Z,22.9
2018-04-15T07:18:58.706Z,22.9
2018-04-15T07:19:49.013Z,22.9
2018-04-15T07:20:37.217Z,22.9
2018-04-15T07:21:28.376Z,22.9
2018-04-15T07:22:17.566Z,22.9
2018-04-15T07:23:08.886Z,22.9
2018-04-15T07:23:58.481Z,22.9
2018-04-15T07:24:47.927Z,22.9
2018-04-15T07:25:37.264Z,22.9
2018-04-15T07:26:28.870Z,22.9
2018-04-15T07:27:19.363Z,22.9
2018-04-15T07:28:09.209Z,22.9
2018-04-15T07:28:59.286Z,22.9
2018-04-15T07:29:48.701Z,22.9
2018-04-15T07:30:39.119Z,22.9
2018-04-15T07:31:29.146Z,22.9
2018-04-15T07:32:20.021Z,22.9
2018-04-15T07:33:08.976Z,22.9
2018-04-15T07:33:59.596Z,22.9
2018-04-15T07:34:50.271Z,22.9
2018-04-15T07:35:39.439Z,22.9
2018-04-15T07:36:31.126Z,22.9
2018-04-15T07:37:20.619Z,22.9
2018-04-15T07:38:10.166Z,22.9
2018-04-15T07:38:59.175Z,22.9
2018-04-15T07:39:49.727Z,22.9
2018-04-15T07:40:40.642Z,22.8
2018-04-15T07:41:31.037Z,22.8
2018-04-15T07:42:20.258Z,22.8
2018-04-15T07:43:10.026Z,22.8
2018-04-15T07:43:59.779Z,22.8
2018-04-15T07:44:49.850Z,22.8
2018-04-15T07:45:41.341Z,22.8
2018-04-15T07:46:31.212Z,22.8
2018-04-15T07:47:20.364Z,22.8
2018-04-15T07:48:10.772Z,22.8
2018-04-15T07:49:01.293Z,22.8
2018-04-15T07:49:51.434Z,22.8
2018-04-15T07:50:41.989Z,22.8
2018-04-15T07:51:31.165Z,22.8
2018-04-15T07:52:21.827Z,22.8
2018-04-15T07:53:11.329Z,22.8
2018-04-15T07:54:01.415Z,22.8
2018-04-15T07:54:51.762Z,22.8
2018-04-15T07:55:41.776Z,22.8
2018-04-15T07:56:31.868Z,22.8
2018-04-15T07:57:21.402Z,22.8
2018-04-15T07:58:10.894Z,22.8
2018-04-15T07:59:02.057Z,22.8
2018-04-15T07:59:51.582Z,22.8
2018-04-15T08:00:42.187Z,22.8
2018-04-15T08:01:32.534Z,22.7
2018-04-15T08:02:22.151Z,22.8
2018-04-15T08:03:12.087Z,22.8
2018-04-15T08:04:02.145Z,22.7
2018-04-15T08:04:52.814Z,22.7
2018-04-15T08:05:42.288Z,22.7
2018-04-15T08:06:32.400Z,22.7
2018-04-15T08:07:21.876Z,22.7
2018-04-15T08:08:12.000Z,22.6
2018-04-15T08:09:02.576Z,22.6
2018-04-15T08:09:52.657Z,22.6
2018-04-15T08:10:42.980Z,22.6
2018-04-15T08:11:33.040Z,22.6
2018-04-15T08:12:22.254Z,22.6
2018-04-15T08:13:13.466Z,22.6
2018-04-15T08:14:02.970Z,22.6
2018-04-15T08:14:53.004Z,22.6
2018-04-15T08:15:43.338Z,22.6
2018-04-15T08:16:33.444Z,22.6
2018-04-15T08:17:23.725Z,22.6
2018-04-15T08:18:13.021Z,22.6
2018-04-15T08:19:03.671Z,22.6
2018-04-15T08:19:52.964Z,22.5
2018-04-15T08:20:43.799Z,22.5
2018-04-15T08:21:33.576Z,22.5
2018-04-15T08:22:23.260Z,22.5
2018-04-15T08:23:13.143Z,22.5
2018-04-15T08:24:03.689Z,22.5
2018-04-15T08:24:53.763Z,22.5
2018-04-15T08:25:44.133Z,22.5
2018-04-15T08:26:33.333Z,22.5
2018-04-15T08:27:24.003Z,22.5
2018-04-15T08:28:14.350Z,22.5
2018-04-15T08:29:04.137Z,22.4
2018-04-15T08:29:53.897Z,22.5
2018-04-15T08:30:44.305Z,22.4
2018-04-15T08:31:34.544Z,22.4
2018-04-15T08:32:24.337Z,22.4
2018-04-15T08:33:14.197Z,22.4
2018-04-15T08:34:04.848Z,22.4
2018-04-15T08:34:54.379Z,22.4
2018-04-15T08:35:44.319Z,22.4
2018-04-15T08:36:34.239Z,22.4
2018-04-15T08:37:24.725Z,22.4
2018-04-15T08:38:15.062Z,22.4
2018-04-15T08:39:04.569Z,22.4
2018-04-15T08:39:54.891Z,22.4
2018-04-15T08:40:45.290Z,22.4
2018-04-15T08:41:35.150Z,22.4
2018-04-15T08:42:24.687Z,22.4
2018-04-15T08:43:14.900Z,22.4
2018-04-15T08:44:05.562Z,22.4
2018-04-15T08:44:55.312Z,22.4
2018-04-15T08:45:45.137Z,22.4
2018-04-15T08:46:35.754Z,22.4
2018-04-15T08:47:25.652Z,22.3
2018-04-15T08:48:14.793Z,22.4
2018-04-15T08:49:04.598Z,22.3
2018-04-15T08:49:55.197Z,22.3
2018-04-15T08:50:44.667Z,22.3
2018-04-15T08:51:35.106Z,22.3
2018-04-15T08:52:25.726Z,22.3
2018-04-15T08:53:15.396Z,22.3
2018-04-15T08:54:06.046Z,22.3
2018-04-15T08:54:56.095Z,22.3
2018-04-15T08:55:46.144Z,22.3
2018-04-15T08:56:35.941Z,22.3
2018-04-15T08:57:26.113Z,22.3
2018-04-15T08:58:15.874Z,22.3
2018-04-15T08:59:06.430Z,22.3
2018-04-15T08:59:56.785Z,22.3
2018-04-15T09:00:46.611Z,22.3
2018-04-15T09:01:37.211Z,22.3
2018-04-15T09:02:26.694Z,22.3
2018-04-15T09:03:16.036Z,22.3
2018-04-15T09:04:05.997Z,22.3
2018-04-15T09:04:56.617Z,22.3
2018-04-15T09:05:46.930Z,22.3
2018-04-15T09:06:36.494Z,22.3
2018-04-15T09:07:26.793Z,22.3
2018-04-15T09:08:16.635Z,22.3
2018-04-15T09:09:07.998Z,22.3
2018-04-15T09:09:57.790Z,22.2
2018-04-15T09:10:47.056Z,22.3
2018-04-15T09:11:37.194Z,22.2
2018-04-15T09:12:26.891Z,22.2
2018-04-15T09:13:17.554Z,22.2
2018-04-15T09:14:07.098Z,22.2
2018-04-15T09:14:58.224Z,22.2
2018-04-15T09:15:46.912Z,22.2
2018-04-15T09:16:37.654Z,22.1
2018-04-15T09:17:27.525Z,22.1
2018-04-15T09:18:18.539Z,22.2
2018-04-15T09:19:07.295Z,22.1
2018-04-15T09:19:57.095Z,22.1
2018-04-15T09:20:46.621Z,22.1
2018-04-15T09:21:37.904Z,22.1
2018-04-15T09:22:28.428Z,22.1
2018-04-15T09:23:17.924Z,22.1
2018-04-15T09:24:08.114Z,22.1
2018-04-15T09:24:57.957Z,22.1
2018-04-15T09:25:48.250Z,22.1
2018-04-15T09:26:38.654Z,22.1
2018-04-15T09:27:27.770Z,22.1
2018-04-15T09:28:18.261Z,22.1
2018-04-15T09:29:08.259Z,22.1
2018-04-15T09:29:58.386Z,22.1
2018-04-15T09:30:48.631Z,22.1
2018-04-15T09:31:38.521Z,22.1
2018-04-15T09:32:29.046Z,22.1
2018-04-15T09:33:18.843Z,22.1
2018-04-15T09:34:09.731Z,22.1
2018-04-15T09:34:59.203Z,22.1
2018-04-15T09:35:49.164Z,22.1
2018-04-15T09:36:39.365Z,22.1
2018-04-15T09:37:29.499Z,22.1
2018-04-15T09:38:18.596Z,22.1
2018-04-15T09:39:09.026Z,22.1
2018-04-15T09:39:58.832Z,22.1
2018-04-15T09:40:48.088Z,22.1
2018-04-15T09:41:39.885Z,22.1
2018-04-15T09:42:29.328Z,22.1
2018-04-15T09:43:19.669Z,22.1
2018-04-15T09:44:10.044Z,22.1
2018-04-15T09:44:59.129Z,22
2018-04-15T09:45:49.828Z,22
2018-04-15T09:46:40.406Z,22
2018-04-15T09:47:29.863Z,22
2018-04-15T09:48:20.036Z,22
2018-04-15T09:49:10.431Z,22
2018-04-15T09:50:00.388Z,22
2018-04-15T09:50:50.170Z,22
2018-04-15T09:51:39.743Z,22
2018-04-15T09:52:29.520Z,22
2018-04-15T09:53:19.881Z,22
2018-04-15T09:54:10.006Z,22
2018-04-15T09:54:59.978Z,22
2018-04-15T09:55:50.335Z,22
2018-04-15T09:56:41.256Z,22
2018-04-15T09:57:30.295Z,22
2018-04-15T09:58:19.759Z,22
2018-04-15T09:59:09.580Z,21.9
2018-04-15T10:00:00.676Z,21.9
2018-04-15T10:00:50.692Z,21.9
2018-04-15T10:01:40.507Z,21.9
2018-04-15T10:02:29.497Z,21.9
2018-04-15T10:03:20.942Z,21.9
2018-04-15T10:04:11.282Z,21.9
2018-04-15T10:05:00.221Z,21.9
2018-04-15T10:05:51.410Z,21.9
2018-04-15T10:06:40.490Z,21.9
2018-04-15T10:07:31.574Z,21.9
2018-04-15T10:08:21.652Z,21.9
2018-04-15T10:09:11.062Z,21.9
2018-04-15T10:10:01.174Z,21.9
2018-04-15T10:10:51.442Z,21.9
2018-04-15T10:11:41.884Z,21.9
2018-04-15T10:12:31.131Z,21.9
2018-04-15T10:13:22.269Z,21.9
2018-04-15T10:14:12.036Z,21.9
2018-04-15T10:15:01.238Z,21.9
2018-04-15T10:15:51.896Z,21.9
2018-04-15T10:16:42.467Z,21.9
2018-04-15T10:17:31.899Z,21.9
2018-04-15T10:18:22.579Z,21.9
2018-04-15T10:19:11.781Z,21.9
2018-04-15T10:20:02.425Z,21.9
2018-04-15T10:20:52.443Z,21.9
2018-04-15T10:21:42.537Z,21.9
2018-04-15T10:22:33.124Z,21.9
2018-04-15T10:23:22.677Z,21.9
2018-04-15T10:24:14.529Z,21.9
2018-04-15T10:25:02.781Z,21.9
2018-04-15T10:25:53.434Z,21.9
2018-04-15T10:26:42.945Z,21.9
2018-04-15T10:27:33.251Z,21.8
2018-04-15T10:28:23.301Z,21.8
2018-04-15T10:29:13.954Z,21.8
2018-04-15T10:30:02.411Z,21.8
2018-04-15T10:30:53.808Z,21.8
2018-04-15T10:31:43.051Z,21.8
2018-04-15T10:32:33.945Z,21.8
2018-04-15T10:33:23.660Z,21.8
2018-04-15T10:34:12.453Z,21.8
2018-04-15T10:35:02.776Z,21.8
2018-04-15T10:35:53.686Z,21.8
2018-04-15T10:36:44.016Z,21.8
2018-04-15T10:37:34.064Z,21.8
2018-04-15T10:38:23.886Z,21.8
2018-04-15T10:39:13.383Z,21.8
2018-04-15T10:40:03.191Z,21.8
2018-04-15T10:40:52.619Z,21.8
2018-04-15T10:41:44.387Z,21.8
2018-04-15T10:42:34.127Z,21.8
2018-04-15T10:43:24.469Z,21.8
2018-04-15T10:44:14.300Z,21.8
2018-04-15T10:45:03.511Z,21.8
2018-04-15T10:45:54.375Z,21.8
2018-04-15T10:46:44.199Z,21.8
2018-04-15T10:47:35.113Z,21.8
2018-04-15T10:48:25.394Z,21.8
2018-04-15T10:49:14.693Z,21.8
2018-04-15T10:50:04.709Z,21.8
2018-04-15T10:50:55.371Z,21.8
2018-04-15T10:51:44.609Z,21.8
2018-04-15T10:52:35.197Z,21.8
2018-04-15T10:53:25.746Z,21.8
2018-04-15T10:54:14.831Z,21.8
2018-04-15T10:55:05.930Z,21.8
2018-04-15T10:55:54.979Z,21.8
2018-04-15T10:56:45.784Z,21.8
2018-04-15T10:57:34.517Z,21.8
2018-04-15T10:58:25.344Z,21.8
2018-04-15T10:59:15.431Z,21.8
2018-04-15T11:00:06.011Z,21.8
2018-04-15T11:00:55.334Z,21.8
2018-04-15T11:01:45.669Z,21.8
2018-04-15T11:02:35.773Z,21.8
2018-04-15T11:03:25.291Z,21.8
2018-04-15T11:04:15.261Z,21.8
2018-04-15T11:05:05.351Z,21.8
2018-04-15T11:05:56.292Z,21.8
2018-04-15T11:06:46.581Z,21.8
2018-04-15T11:07:36.038Z,21.8